createdAt,value
2022-10-16T00:01:29.752Z,32.08
2022-10-16T00:03:59.180Z,32.03
2022-10-16T00:06:27.651Z,31.67
2022-10-16T00:08:55.661Z,31.85
2022-10-16T00:11:29.330Z,33.45
2022-10-16T00:14:00.432Z,32.72
2022-10-16T00:16:29.594Z,33.22
2022-10-16T00:18:58.056Z,32.58
2022-10-16T00:21:28.410Z,32.00
2022-10-16T00:24:14.361Z,33.05
2022-10-16T00:26:42.073Z,33.38
2022-10-16T00:29:10.198Z,32.60
2022-10-16T00:31:37.757Z,33.65
2022-10-16T00:34:05.295Z,32.30
2022-10-16T00:36:33.304Z,33.40
2022-10-16T00:39:02.421Z,34.58
2022-10-16T00:41:31.855Z,32.35
2022-10-16T00:44:01.282Z,32.75
2022-10-16T00:46:41.923Z,33.30
2022-10-16T00:49:15.867Z,32.25
2022-10-16T00:51:46.378Z,33.17
2022-10-16T00:54:28.704Z,32.55
2022-10-16T00:56:59.223Z,31.52
2022-10-16T00:59:31.228Z,31.75
2022-10-16T01:01:59.796Z,32.65
2022-10-16T01:04:31.587Z,33.25
2022-10-16T01:07:12.004Z,31.75
2022-10-16T01:10:14.747Z,33.28
2022-10-16T01:13:27.728Z,32.95
2022-10-16T01:16:07.930Z,32.72
2022-10-16T01:18:42.139Z,32.17
2022-10-16T01:21:15.313Z,33.80
2022-10-16T01:24:01.399Z,32.28
2022-10-16T01:26:44.984Z,32.40
2022-10-16T01:29:25.060Z,31.40
2022-10-16T01:32:00.392Z,33.72
2022-10-16T01:34:38.686Z,32.65
2022-10-16T01:37:12.210Z,32.95
2022-10-16T01:39:42.472Z,33.13
2022-10-16T01:42:14.993Z,33.20
2022-10-16T01:44:44.633Z,33.53
2022-10-16T01:47:15.049Z,32.45
2022-10-16T01:49:45.459Z,33.88
2022-10-16T01:52:20.782Z,33.08
2022-10-16T01:54:52.850Z,32.22
2022-10-16T01:57:22.610Z,31.45
2022-10-16T01:59:55.593Z,31.75
2022-10-16T02:02:24.227Z,31.23
2022-10-16T02:05:02.818Z,31.45
2022-10-16T02:07:30.258Z,31.65
2022-10-16T02:09:57.952Z,31.42
2022-10-16T02:12:29.383Z,31.58
2022-10-16T02:14:57.026Z,31.48
2022-10-16T02:17:24.826Z,31.88
2022-10-16T02:19:54.914Z,30.40
2022-10-16T02:22:47.969Z,31.45
2022-10-16T02:25:41.172Z,31.52
2022-10-16T02:28:14.101Z,31.45
2022-10-16T02:30:49.382Z,32.67
2022-10-16T02:33:18.700Z,30.98
2022-10-16T02:35:49.549Z,31.38
2022-10-16T02:38:18.635Z,31.02
2022-10-16T02:40:46.193Z,31.20
2022-10-16T02:43:14.361Z,31.38
2022-10-16T02:45:42.003Z,30.33
2022-10-16T02:48:09.458Z,31.45
2022-10-16T02:50:36.906Z,31.63
2022-10-16T02:53:04.296Z,30.13
2022-10-16T02:55:31.849Z,30.67
2022-10-16T02:57:59.324Z,31.45
2022-10-16T03:00:26.805Z,29.88
2022-10-16T03:02:54.436Z,30.75
2022-10-16T03:07:49.233Z,26.83
2022-10-16T03:10:16.665Z,27.88
2022-10-16T03:12:44.073Z,30.65
2022-10-16T03:15:11.639Z,30.38
2022-10-16T03:17:39.040Z,29.40
2022-10-16T03:20:07.010Z,30.42
2022-10-16T03:22:34.333Z,31.52
2022-10-16T03:25:02.169Z,30.88
2022-10-16T03:27:29.902Z,29.98
2022-10-16T03:29:57.808Z,30.15
2022-10-16T03:32:26.268Z,30.38
2022-10-16T03:34:55.304Z,29.58
2022-10-16T03:37:22.816Z,29.17
2022-10-16T03:39:50.262Z,29.58
2022-10-16T03:42:17.788Z,29.40
2022-10-16T03:44:45.269Z,29.25
2022-10-16T03:47:12.619Z,29.45
2022-10-16T03:49:40.161Z,29.95
2022-10-16T03:52:07.713Z,29.20
2022-10-16T03:54:35.235Z,28.42
2022-10-16T03:57:02.747Z,31.02
2022-10-16T03:59:30.373Z,30.08
2022-10-16T04:01:57.960Z,29.80
2022-10-16T04:04:26.051Z,30.75
2022-10-16T04:06:53.474Z,29.75
2022-10-16T04:09:20.857Z,30.13
2022-10-16T04:11:48.375Z,30.33
2022-10-16T04:14:15.777Z,29.23
2022-10-16T04:16:43.190Z,28.58
2022-10-16T04:19:12.118Z,29.10
2022-10-16T04:21:39.510Z,30.13
2022-10-16T04:24:07.031Z,30.50
2022-10-16T04:26:34.457Z,30.85
2022-10-16T04:29:01.941Z,30.85
2022-10-16T04:31:29.589Z,30.73
2022-10-16T04:33:57.181Z,29.52
2022-10-16T04:36:28.280Z,30.92
2022-10-16T04:38:56.839Z,31.05
2022-10-16T04:41:24.330Z,30.33
2022-10-16T04:43:51.971Z,30.52
2022-10-16T04:46:19.358Z,31.02
2022-10-16T04:48:47.830Z,29.42
2022-10-16T04:51:15.303Z,31.40
2022-10-16T04:53:42.667Z,30.67
2022-10-16T04:56:10.117Z,29.48
2022-10-16T04:58:37.498Z,29.23
2022-10-16T05:01:05.038Z,29.85
2022-10-16T05:03:32.553Z,29.20
2022-10-16T05:06:00.106Z,28.40
2022-10-16T05:08:27.585Z,28.25
2022-10-16T05:10:55.262Z,29.25
2022-10-16T05:13:22.669Z,28.52
2022-10-16T05:15:50.274Z,31.10
2022-10-16T05:18:17.814Z,32.00
2022-10-16T05:20:45.311Z,32.67
2022-10-16T05:25:41.122Z,31.85
2022-10-16T05:28:08.666Z,33.50
2022-10-16T05:30:38.662Z,31.50
2022-10-16T05:33:06.161Z,31.70
2022-10-16T05:35:36.123Z,31.45
2022-10-16T05:38:03.529Z,31.42
2022-10-16T05:40:30.917Z,32.35
2022-10-16T05:42:58.364Z,30.17
2022-10-16T05:45:28.887Z,30.80
2022-10-16T05:47:56.372Z,31.67
2022-10-16T05:50:23.788Z,32.65
2022-10-16T05:52:51.268Z,32.22
2022-10-16T05:55:18.759Z,33.15
2022-10-16T05:57:46.281Z,31.30
2022-10-16T06:00:13.744Z,32.47
2022-10-16T06:02:41.386Z,31.88
2022-10-16T06:05:08.965Z,33.05
2022-10-16T06:07:37.197Z,32.30
2022-10-16T06:10:05.781Z,31.27
2022-10-16T06:12:33.394Z,31.30
2022-10-16T06:15:00.941Z,33.10
2022-10-16T06:17:28.642Z,31.48
2022-10-16T06:19:56.317Z,30.08
2022-10-16T06:22:23.724Z,31.23
2022-10-16T06:24:51.143Z,33.40
2022-10-16T06:27:18.649Z,32.97
2022-10-16T06:29:46.494Z,31.95
2022-10-16T06:32:14.040Z,31.77
2022-10-16T06:34:44.070Z,31.60
2022-10-16T06:37:11.792Z,30.63
2022-10-16T06:39:39.216Z,31.38
2022-10-16T06:42:06.791Z,32.95
2022-10-16T06:44:40.401Z,31.60
2022-10-16T06:47:08.290Z,32.45
2022-10-16T06:49:35.822Z,31.40
2022-10-16T06:52:03.996Z,32.72
2022-10-16T06:54:36.441Z,32.60
2022-10-16T06:57:09.432Z,30.85
2022-10-16T06:59:36.897Z,31.67
2022-10-16T07:02:04.425Z,31.35
2022-10-16T07:04:31.882Z,31.88
2022-10-16T07:07:04.448Z,32.15
2022-10-16T07:09:34.513Z,30.48
2022-10-16T07:12:01.943Z,31.30
2022-10-16T07:14:29.750Z,30.10
2022-10-16T07:16:57.310Z,31.13
2022-10-16T07:19:28.344Z,30.20
2022-10-16T07:21:58.284Z,30.65
2022-10-16T07:24:25.944Z,30.73
2022-10-16T07:26:53.529Z,32.10
2022-10-16T07:29:22.657Z,31.23
2022-10-16T07:31:50.733Z,31.63
2022-10-16T07:34:19.898Z,31.60
2022-10-16T07:36:50.741Z,32.50
2022-10-16T07:39:18.526Z,32.88
2022-10-16T07:41:46.065Z,32.13
2022-10-16T07:44:13.593Z,32.20
2022-10-16T07:46:41.037Z,33.30
2022-10-16T07:49:09.979Z,32.85
2022-10-16T07:51:39.231Z,32.67
2022-10-16T07:54:06.724Z,32.65
2022-10-16T07:56:34.332Z,33.25
2022-10-16T07:59:04.600Z,33.95
2022-10-16T08:01:32.045Z,34.78
2022-10-16T08:03:59.562Z,33.88
2022-10-16T08:06:28.127Z,33.85
2022-10-16T08:08:58.426Z,34.15
2022-10-16T08:11:25.958Z,33.83
2022-10-16T08:13:53.698Z,33.30
2022-10-16T08:16:21.601Z,33.72
2022-10-16T08:18:49.663Z,35.15
2022-10-16T08:21:21.281Z,34.88
2022-10-16T08:23:54.598Z,33.97
2022-10-16T08:26:24.927Z,35.03
2022-10-16T08:28:53.120Z,36.25
2022-10-16T08:31:22.313Z,33.25
2022-10-16T08:33:50.119Z,34.22
2022-10-16T08:42:02.200Z,31.17
2022-10-16T08:45:24.124Z,31.40
2022-10-16T08:48:10.932Z,29.95
2022-10-16T08:50:40.947Z,30.10
2022-10-16T08:53:16.989Z,29.60
2022-10-16T08:55:47.751Z,30.77
2022-10-16T08:58:21.327Z,29.63
2022-10-16T09:01:18.050Z,28.88
2022-10-16T09:04:16.157Z,29.92
2022-10-16T09:06:47.845Z,30.63
2022-10-16T09:09:54.773Z,29.90
2022-10-16T09:13:08.710Z,28.40
2022-10-16T09:15:48.945Z,29.95
2022-10-16T09:19:03.719Z,29.58
2022-10-16T09:21:34.702Z,30.38
2022-10-16T09:24:15.775Z,31.73
2022-10-16T09:26:44.088Z,30.17
2022-10-16T09:29:16.449Z,31.15
2022-10-16T09:31:44.336Z,32.15
2022-10-16T09:34:36.883Z,31.65
2022-10-16T09:37:09.704Z,32.13
2022-10-16T09:39:47.538Z,32.00
2022-10-16T09:42:31.674Z,32.60
2022-10-16T09:44:59.457Z,32.20
2022-10-16T09:47:30.196Z,32.28
2022-10-16T09:50:21.620Z,32.83
2022-10-16T09:52:49.290Z,31.52
2022-10-16T09:55:19.193Z,31.05
2022-10-16T09:57:51.421Z,31.65
2022-10-16T10:00:19.696Z,31.33
2022-10-16T10:02:47.802Z,30.08
2022-10-16T10:05:28.046Z,32.72
2022-10-16T10:08:00.143Z,30.55
2022-10-16T10:10:32.853Z,28.13
2022-10-16T10:13:00.555Z,28.45
2022-10-16T10:15:34.312Z,27.88
2022-10-16T10:18:04.226Z,29.00
2022-10-16T10:20:39.143Z,31.83
2022-10-16T10:23:24.623Z,30.17
2022-10-16T10:28:56.865Z,29.85
2022-10-16T10:31:47.148Z,30.98
2022-10-16T10:34:32.098Z,29.95
2022-10-16T10:37:26.499Z,28.70
2022-10-16T10:40:02.168Z,26.25
2022-10-16T10:42:57.352Z,25.60
2022-10-16T10:45:38.251Z,26.35
2022-10-16T10:48:17.446Z,28.10
2022-10-16T10:50:58.840Z,28.42
2022-10-16T10:53:39.987Z,28.83
2022-10-16T10:56:40.244Z,28.83
2022-10-16T10:59:33.766Z,28.27
2022-10-16T11:02:05.721Z,29.15
2022-10-16T11:05:00.382Z,28.27
2022-10-16T11:07:41.895Z,28.40
2022-10-16T11:10:23.932Z,28.02
2022-10-16T11:13:16.213Z,28.55
2022-10-16T11:15:50.969Z,29.35
2022-10-16T11:18:46.680Z,28.38
2022-10-16T11:21:16.937Z,27.58
2022-10-16T11:23:58.331Z,28.73
2022-10-16T11:26:35.654Z,26.15
2022-10-16T11:29:09.800Z,27.92
2022-10-16T11:31:42.302Z,27.27
2022-10-16T11:34:23.142Z,28.20
2022-10-16T11:36:57.731Z,27.00
2022-10-16T11:39:28.404Z,26.83
2022-10-16T11:42:00.507Z,26.60
2022-10-16T11:44:43.586Z,26.77
2022-10-16T11:51:28.165Z,27.30
2022-10-16T11:54:14.423Z,28.73
2022-10-16T11:57:49.460Z,27.25
2022-10-16T12:00:56.651Z,27.40
2022-10-16T12:03:24.399Z,27.52
2022-10-16T12:07:04.666Z,29.13
2022-10-16T12:09:35.925Z,28.02
2022-10-16T12:12:05.406Z,27.60
2022-10-16T12:15:14.776Z,27.85
2022-10-16T12:17:39.902Z,27.63
2022-10-16T12:23:48.769Z,27.42
2022-10-16T12:26:30.018Z,27.98
2022-10-16T12:29:23.363Z,27.83
2022-10-16T12:31:58.234Z,29.13
2022-10-16T12:34:45.509Z,29.00
2022-10-16T12:37:22.537Z,29.02
2022-10-16T12:40:24.816Z,28.08
2022-10-16T12:43:34.489Z,28.00
2022-10-16T12:47:30.342Z,27.98
2022-10-16T12:49:58.947Z,28.27
2022-10-16T12:52:28.900Z,28.33
2022-10-16T12:55:01.696Z,27.90
2022-10-16T12:57:29.602Z,27.20
2022-10-16T13:00:52.824Z,27.90
2022-10-16T13:03:59.017Z,27.08
2022-10-16T13:07:42.926Z,28.17
2022-10-16T13:10:24.646Z,27.15
2022-10-16T13:13:04.143Z,26.55
2022-10-16T13:16:21.532Z,26.10
2022-10-16T13:19:42.767Z,27.15
2022-10-16T13:23:40.510Z,26.85
2022-10-16T13:26:37.403Z,27.10
2022-10-16T13:30:14.668Z,26.58
2022-10-16T13:32:47.548Z,25.95
2022-10-16T13:35:29.833Z,25.58
2022-10-16T13:38:14.829Z,25.88
2022-10-16T13:44:27.525Z,26.73
2022-10-16T13:47:02.517Z,26.65
2022-10-16T13:50:05.350Z,25.52
2022-10-16T13:52:35.409Z,26.13
2022-10-16T13:56:30.897Z,27.23
2022-10-16T13:59:47.836Z,25.13
2022-10-16T14:03:35.538Z,25.08
2022-10-16T14:06:24.781Z,25.08
2022-10-16T14:09:09.174Z,25.95
2022-10-16T14:11:47.032Z,25.42
2022-10-16T14:15:00.658Z,25.63
2022-10-16T14:17:30.899Z,24.52
2022-10-16T14:20:55.718Z,24.40
2022-10-16T14:23:40.588Z,23.90
2022-10-16T14:26:09.454Z,25.35
2022-10-16T14:28:41.622Z,26.25
2022-10-16T14:31:38.997Z,24.65
2022-10-16T14:34:25.653Z,25.40
2022-10-16T14:37:13.694Z,24.10
2022-10-16T14:39:42.188Z,25.25
2022-10-16T14:46:38.778Z,24.60
2022-10-16T15:00:34.902Z,24.60
2022-10-16T15:07:14.809Z,25.45
2022-10-16T15:13:38.223Z,21.98
2022-10-16T15:16:37.705Z,24.20
2022-10-16T15:19:46.644Z,24.40
2022-10-16T15:22:27.069Z,23.25
2022-10-16T15:25:36.052Z,23.75
2022-10-16T15:28:06.623Z,23.73
2022-10-16T15:30:34.909Z,24.92
2022-10-16T15:33:03.248Z,24.25
2022-10-16T15:40:10.733Z,23.88
2022-10-16T17:33:50.845Z,39.15
2022-10-16T17:37:17.330Z,37.97
2022-10-16T17:40:09.444Z,37.05
2022-10-16T17:54:04.856Z,37.65
2022-10-16T18:01:50.172Z,39.65
2022-10-16T18:05:19.547Z,39.05
2022-10-16T18:08:03.452Z,39.40
2022-10-16T18:26:07.289Z,40.20
2022-10-16T18:30:49.239Z,38.60
2022-10-16T18:33:26.206Z,39.40
2022-10-16T18:40:09.092Z,39.72
2022-10-16T18:42:55.897Z,41.67
2022-10-16T18:45:43.263Z,43.38
2022-10-16T18:52:50.704Z,42.05
2022-10-16T18:56:28.904Z,42.95
2022-10-16T18:59:30.208Z,42.08
2022-10-16T19:05:17.718Z,43.28
2022-10-16T19:12:58.669Z,40.72
2022-10-16T19:15:58.209Z,42.75
2022-10-16T19:18:43.721Z,41.50
2022-10-16T19:21:33.304Z,42.08
2022-10-16T19:25:34.614Z,41.53
2022-10-16T19:28:25.159Z,38.03
2022-10-16T19:30:56.697Z,39.45
2022-10-16T19:33:58.417Z,37.85
2022-10-16T19:38:04.741Z,38.33
2022-10-16T19:41:24.438Z,38.28
2022-10-16T19:43:46.404Z,37.35
2022-10-16T19:47:16.820Z,36.30
2022-10-16T19:54:57.835Z,39.90
2022-10-16T20:02:04.931Z,36.10
2022-10-16T20:07:45.235Z,37.38
2022-10-16T20:18:43.068Z,39.00
2022-10-16T20:21:40.377Z,38.45
2022-10-16T20:29:35.205Z,38.88
2022-10-16T20:40:34.576Z,38.05
2022-10-16T20:43:35.556Z,37.72
2022-10-16T20:52:29.777Z,38.67
2022-10-16T20:55:00.533Z,37.95
2022-10-16T20:57:55.222Z,36.88
2022-10-16T21:06:34.534Z,37.10
2022-10-16T21:13:48.092Z,38.45
2022-10-16T21:17:24.110Z,39.13
2022-10-16T21:20:20.931Z,39.78
2022-10-16T21:23:52.434Z,39.33
2022-10-16T21:27:34.689Z,38.90
2022-10-16T21:38:40.858Z,38.63
2022-10-16T21:41:53.908Z,38.72
2022-10-16T21:44:23.637Z,36.33
2022-10-16T21:47:20.713Z,38.45
2022-10-16T21:50:17.479Z,39.22
2022-10-16T21:53:07.169Z,38.13
2022-10-16T21:55:42.579Z,38.13
2022-10-16T21:59:24.577Z,37.90
2022-10-16T22:02:14.161Z,39.65
2022-10-16T22:04:51.968Z,38.13
2022-10-16T22:07:59.186Z,38.65
2022-10-16T22:10:26.934Z,38.38
2022-10-16T22:12:56.999Z,38.00
2022-10-16T22:15:24.715Z,38.90
2022-10-16T22:17:59.934Z,38.20
2022-10-16T22:20:52.813Z,37.30
2022-10-16T22:24:30.528Z,38.35
2022-10-16T22:27:01.154Z,38.80
2022-10-16T22:29:29.994Z,38.00
2022-10-16T22:31:57.734Z,37.90
2022-10-16T22:34:29.695Z,37.35
2022-10-16T22:36:57.356Z,38.20
2022-10-16T22:39:25.008Z,38.50
2022-10-16T22:41:52.702Z,38.55
2022-10-16T22:44:22.621Z,37.08
2022-10-16T22:46:50.351Z,37.58
2022-10-16T22:49:25.600Z,38.05
2022-10-16T22:51:53.168Z,37.55
2022-10-16T22:54:23.176Z,37.60
2022-10-16T22:57:51.332Z,37.90
2022-10-16T23:00:22.249Z,37.20
2022-10-16T23:03:03.119Z,39.28
2022-10-16T23:05:33.314Z,36.63
2022-10-16T23:08:03.037Z,37.15
2022-10-16T23:10:30.688Z,38.55
2022-10-16T23:13:23.903Z,37.65
2022-10-16T23:15:51.511Z,38.38
2022-10-16T23:18:21.813Z,40.15
2022-10-16T23:20:49.638Z,38.05
2022-10-16T23:23:25.576Z,36.65
2022-10-16T23:25:53.157Z,38.08
2022-10-16T23:28:22.001Z,36.90
2022-10-16T23:30:52.228Z,36.45
2022-10-16T23:33:20.298Z,37.20
2022-10-16T23:35:47.972Z,37.42
2022-10-16T23:38:17.796Z,37.67
2022-10-16T23:41:04.769Z,37.80
2022-10-16T23:43:57.232Z,38.25
2022-10-16T23:46:40.232Z,36.20
2022-10-16T23:49:08.046Z,36.67
2022-10-16T23:51:43.357Z,37.10
2022-10-16T23:57:18.227Z,36.47
2022-10-16T23:59:46.404Z,37.42
